createdAt,value
2022-08-23T00:02:23.919Z,100305.13
2022-08-23T00:07:26.331Z,100308.00
2022-08-23T00:12:31.882Z,100307.59
2022-08-23T00:17:35.077Z,100313.31
2022-08-23T00:22:40.116Z,100324.59
2022-08-23T00:27:42.336Z,100317.09
2022-08-23T00:32:45.471Z,100316.69
2022-08-23T00:38:05.914Z,100324.69
2022-08-23T00:43:31.453Z,100332.81
2022-08-23T00:48:34.505Z,100327.91
2022-08-23T00:53:42.156Z,100339.81
2022-08-23T00:58:46.368Z,100341.13
2022-08-23T01:04:04.110Z,100338.44
2022-08-23T01:09:11.948Z,100350.94
2022-08-23T01:14:19.009Z,100346.97
2022-08-23T01:19:35.505Z,100357.56
2022-08-23T01:25:05.726Z,100351.84
2022-08-23T01:30:00.855Z,100366.75
2022-08-23T01:35:04.523Z,100364.16
2022-08-23T01:40:07.163Z,100342.88
2022-08-23T01:45:12.868Z,100362.28
2022-08-23T01:50:15.062Z,100367.13
2022-08-23T01:55:18.533Z,100368.63
2022-08-23T02:00:44.551Z,100367.44
2022-08-23T02:05:48.412Z,100374.28
2022-08-23T02:10:51.063Z,100373.91
2022-08-23T02:15:55.189Z,100380.59
2022-08-23T02:20:59.134Z,100371.78
2022-08-23T02:26:01.279Z,100378.25
2022-08-23T02:31:04.291Z,100385.53
2022-08-23T02:36:08.370Z,100386.09
2022-08-23T02:41:11.997Z,100386.94
2022-08-23T02:46:14.054Z,100392.94
2022-08-23T02:51:17.821Z,100398.09
2022-08-23T02:56:21.422Z,100394.81
2022-08-23T03:01:29.464Z,100398.84
2022-08-23T03:06:37.868Z,100380.38
2022-08-23T03:11:45.747Z,100388.84
2022-08-23T03:16:48.426Z,100407.41
2022-08-23T03:21:50.601Z,100410.25
2022-08-23T03:26:54.444Z,100414.00
2022-08-23T03:31:56.520Z,100416.59
2022-08-23T03:37:00.653Z,100420.81
2022-08-23T03:42:03.611Z,100420.13
2022-08-23T03:47:08.765Z,100418.84
2022-08-23T03:52:11.909Z,100430.13
2022-08-23T03:57:13.986Z,100441.19
2022-08-23T04:02:17.950Z,100440.38
2022-08-23T04:07:21.846Z,100443.69
2022-08-23T04:12:28.695Z,100430.63
2022-08-23T04:17:32.533Z,100448.63
2022-08-23T04:22:35.753Z,100451.31
2022-08-23T04:27:37.959Z,100456.13
2022-08-23T04:32:41.041Z,100453.63
2022-08-23T04:37:46.395Z,100446.78
2022-08-23T04:42:48.830Z,100470.56
2022-08-23T04:47:51.668Z,100457.66
2022-08-23T04:52:53.821Z,100468.56
2022-08-23T04:57:56.019Z,100472.03
2022-08-23T05:03:01.021Z,100463.72
2022-08-23T05:08:03.434Z,100468.31
2022-08-23T05:13:05.631Z,100467.44
2022-08-23T05:18:08.582Z,100470.69
2022-08-23T05:23:11.815Z,100465.19
2022-08-23T05:28:43.859Z,100478.53
2022-08-23T05:33:48.307Z,100459.56
2022-08-23T05:38:55.195Z,100480.88
2022-08-23T05:43:59.579Z,100475.38
2022-08-23T05:49:05.367Z,100470.56
2022-08-23T05:54:09.152Z,100482.91
2022-08-23T05:59:15.955Z,100482.06
2022-08-23T06:04:20.583Z,100482.88
2022-08-23T06:09:23.521Z,100486.66
2022-08-23T06:14:25.811Z,100488.31
2022-08-23T06:19:28.111Z,100489.63
2022-08-23T06:24:52.469Z,100489.72
2022-08-23T06:29:58.785Z,100502.75
2022-08-23T06:35:38.128Z,100500.91
2022-08-23T06:40:36.327Z,100509.63
2022-08-23T06:46:09.134Z,100514.63
2022-08-23T06:51:29.188Z,100513.91
2022-08-23T06:56:53.686Z,100515.22
2022-08-23T07:02:04.048Z,100512.19
2022-08-23T07:07:44.010Z,100506.47
2022-08-23T07:12:50.205Z,100506.63
2022-08-23T07:17:56.368Z,100516.13
2022-08-23T07:22:59.213Z,100520.25
2022-08-23T07:28:02.258Z,100517.53
2022-08-23T07:33:04.559Z,100515.41
2022-08-23T07:38:12.956Z,100513.16
2022-08-23T07:43:15.289Z,100520.16
2022-08-23T07:48:27.400Z,100515.38
2022-08-23T07:53:46.712Z,100525.56
2022-08-23T07:58:51.349Z,100512.16
2022-08-23T08:04:10.520Z,100518.66
2022-08-23T08:09:15.544Z,100530.09
2022-08-23T08:14:18.672Z,100508.78
2022-08-23T08:19:26.606Z,100512.94
2022-08-23T08:24:47.280Z,100506.66
2022-08-23T08:29:49.959Z,100510.47
2022-08-23T08:34:52.336Z,100507.91
2022-08-23T08:39:54.775Z,100511.88
2022-08-23T08:45:00.641Z,100504.75
2022-08-23T08:50:06.746Z,100506.28
2022-08-23T08:55:22.492Z,100502.56
2022-08-23T09:00:32.743Z,100502.78
2022-08-23T09:05:39.871Z,100511.63
2022-08-23T09:11:09.359Z,100510.41
2022-08-23T09:16:18.406Z,100500.84
2022-08-23T09:21:22.797Z,100496.78
2022-08-23T09:26:30.778Z,100504.84
2022-08-23T09:31:55.872Z,100485.03
2022-08-23T09:37:13.749Z,100500.44
2022-08-23T09:42:27.450Z,100500.03
2022-08-23T09:47:44.124Z,100491.06
2022-08-23T09:52:50.361Z,100481.50
2022-08-23T09:57:53.598Z,100475.19
2022-08-23T10:03:27.820Z,100487.72
2022-08-23T10:08:53.046Z,100481.69
2022-08-23T10:13:56.432Z,100482.16
2022-08-23T10:19:11.046Z,100478.19
2022-08-23T10:24:24.184Z,100525.19
2022-08-23T10:29:48.676Z,100472.72
2022-08-23T10:34:57.894Z,100482.97
2022-08-23T10:40:10.720Z,100477.41
2022-08-23T10:45:28.508Z,100483.84
2022-08-23T10:50:55.497Z,100484.69
2022-08-23T10:56:13.518Z,100481.72
2022-08-23T11:01:30.170Z,100467.00
2022-08-23T11:06:35.175Z,100482.38
2022-08-23T11:11:46.348Z,100472.09
2022-08-23T11:16:59.575Z,100475.47
2022-08-23T11:22:32.735Z,100472.50
2022-08-23T11:27:42.039Z,100475.94
2022-08-23T11:32:49.423Z,100457.69
2022-08-23T11:38:04.140Z,100468.59
2022-08-23T11:43:22.352Z,100466.25
2022-08-23T11:48:27.647Z,100465.00
2022-08-23T11:53:42.580Z,100458.97
2022-08-23T11:59:24.997Z,100471.97
2022-08-23T12:04:47.371Z,100473.25
2022-08-23T12:09:52.457Z,100468.75
2022-08-23T12:15:01.069Z,100459.06
2022-08-23T12:20:07.085Z,100461.91
2022-08-23T12:25:20.575Z,100446.47
2022-08-23T12:30:23.102Z,100454.81
2022-08-23T12:35:51.097Z,100451.94
2022-08-23T12:40:54.875Z,100441.81
2022-08-23T12:46:00.970Z,100448.94
2022-08-23T12:51:10.694Z,100449.72
2022-08-23T12:56:31.370Z,100449.25
2022-08-23T13:01:38.485Z,100441.25
2022-08-23T13:06:51.430Z,100443.66
2022-08-23T13:11:54.453Z,100433.28
2022-08-23T13:16:56.639Z,100439.31
2022-08-23T13:22:22.913Z,100436.19
2022-08-23T13:27:31.492Z,100431.44
2022-08-23T13:32:47.359Z,100438.34
2022-08-23T13:37:52.509Z,100436.06
2022-08-23T13:43:02.656Z,100423.72
2022-08-23T13:48:15.686Z,100422.09
2022-08-23T13:53:18.430Z,100420.78
2022-08-23T13:58:26.568Z,100418.94
2022-08-23T14:03:31.580Z,100435.63
2022-08-23T14:08:33.765Z,100424.50
2022-08-23T14:13:36.885Z,100413.50
2022-08-23T14:19:16.769Z,100413.81
2022-08-23T14:24:01.765Z,100413.47
2022-08-23T14:29:04.522Z,100410.34
2022-08-23T14:34:07.571Z,100416.66
2022-08-23T14:39:13.568Z,100414.09
2022-08-23T14:44:18.328Z,100404.25
2022-08-23T14:49:21.583Z,100388.75
2022-08-23T14:54:26.004Z,100423.84
2022-08-23T14:59:28.222Z,100417.06
2022-08-23T15:04:34.406Z,100407.28
2022-08-23T15:09:38.278Z,100403.53
2022-08-23T15:14:40.649Z,100405.41
2022-08-23T15:19:42.747Z,100404.38
2022-08-23T15:24:44.868Z,100402.34
2022-08-23T15:29:47.044Z,100408.97
2022-08-23T15:34:49.226Z,100406.47
2022-08-23T15:39:51.800Z,100407.16
2022-08-23T15:44:54.222Z,100410.91
2022-08-23T15:49:58.600Z,100406.41
2022-08-23T15:55:00.697Z,100405.03
2022-08-23T16:00:05.160Z,100402.59
2022-08-23T16:05:15.505Z,100412.47
2022-08-23T16:10:17.714Z,100412.94
2022-08-23T16:15:20.006Z,100423.16
2022-08-23T16:20:22.364Z,100410.69
2022-08-23T16:25:24.687Z,100425.13
2022-08-23T16:30:29.187Z,100429.47
2022-08-23T16:35:31.455Z,100422.97
2022-08-23T16:40:33.581Z,100440.94
2022-08-23T16:45:35.722Z,100442.47
2022-08-23T16:50:38.132Z,100444.53
2022-08-23T16:55:40.490Z,100448.19
2022-08-23T17:00:42.643Z,100455.94
2022-08-23T17:05:45.266Z,100461.44
2022-08-23T17:10:48.544Z,100451.09
2022-08-23T17:15:51.389Z,100456.38
2022-08-23T17:20:53.671Z,100456.69
2022-08-23T17:25:55.966Z,100465.53
2022-08-23T17:30:58.782Z,100465.84
2022-08-23T17:36:01.380Z,100474.63
2022-08-23T17:41:03.622Z,100476.84
2022-08-23T17:46:06.000Z,100480.78
2022-08-23T17:51:08.245Z,100483.00
2022-08-23T17:56:12.288Z,100486.34
2022-08-23T18:01:14.967Z,100484.72
2022-08-23T18:06:17.579Z,100495.13
2022-08-23T18:11:19.900Z,100487.47
2022-08-23T18:16:22.215Z,100497.59
2022-08-23T18:21:30.712Z,100496.78
2022-08-23T18:26:51.449Z,100486.41
2022-08-23T18:31:53.829Z,100471.16
2022-08-23T18:36:56.845Z,100496.56
2022-08-23T18:42:01.254Z,100496.59
2022-08-23T18:47:03.909Z,100495.22
2022-08-23T18:52:06.853Z,100498.22
2022-08-23T18:57:09.223Z,100501.47
2022-08-23T19:02:18.330Z,100499.84
2022-08-23T19:07:20.574Z,100493.31
2022-08-23T19:12:22.933Z,100496.28
2022-08-23T19:17:25.153Z,100497.38
2022-08-23T19:22:27.460Z,100497.38
2022-08-23T19:27:29.808Z,100505.00
2022-08-23T19:32:32.934Z,100510.44
2022-08-23T19:37:35.307Z,100511.78
2022-08-23T19:42:40.495Z,100513.91
2022-08-23T19:47:42.700Z,100512.22
2022-08-23T19:52:45.286Z,100517.09
2022-08-23T19:57:48.040Z,100519.72
2022-08-23T20:02:50.326Z,100518.00
2022-08-23T20:07:52.522Z,100516.53
2022-08-23T20:12:54.698Z,100526.06
2022-08-23T20:17:58.552Z,100531.47
2022-08-23T20:23:19.259Z,100525.16
2022-08-23T20:28:26.161Z,100520.16
2022-08-23T20:33:28.575Z,100533.25
2022-08-23T20:38:33.290Z,100541.34
2022-08-23T20:43:39.134Z,100541.03
2022-08-23T20:48:41.244Z,100543.72
2022-08-23T20:53:43.582Z,100546.69
2022-08-23T20:58:45.990Z,100551.00
2022-08-23T21:03:49.765Z,100547.66
2022-08-23T21:08:54.188Z,100553.84
2022-08-23T21:13:57.442Z,100551.88
2022-08-23T21:18:59.730Z,100550.94
2022-08-23T21:24:03.429Z,100552.81
2022-08-23T21:29:07.784Z,100562.22
2022-08-23T21:34:10.002Z,100565.13
2022-08-23T21:39:12.136Z,100546.16
2022-08-23T21:44:17.174Z,100569.88
2022-08-23T21:49:21.108Z,100564.03
2022-08-23T21:54:24.609Z,100563.13
2022-08-23T21:59:27.109Z,100570.06
2022-08-23T22:04:30.195Z,100569.44
2022-08-23T22:09:32.408Z,100569.63
2022-08-23T22:14:34.594Z,100580.38
2022-08-23T22:19:36.907Z,100562.81
2022-08-23T22:24:39.111Z,100589.56
2022-08-23T22:29:46.480Z,100582.06
2022-08-23T22:34:49.255Z,100588.50
2022-08-23T22:39:55.029Z,100593.03
2022-08-23T22:44:57.189Z,100594.59
2022-08-23T22:50:00.061Z,100599.47
2022-08-23T22:55:02.490Z,100601.34
2022-08-23T23:00:07.018Z,100595.34
2022-08-23T23:05:12.973Z,100598.78
2022-08-23T23:10:15.559Z,100598.22
2022-08-23T23:15:17.832Z,100600.63
2022-08-23T23:20:39.436Z,100597.59
2022-08-23T23:25:43.008Z,100600.06
2022-08-23T23:30:47.203Z,100603.16
2022-08-23T23:35:51.757Z,100611.22
2022-08-23T23:40:53.884Z,100592.75
2022-08-23T23:45:55.962Z,100609.03
2022-08-23T23:50:58.294Z,100605.41
2022-08-23T23:56:01.606Z,100614.06
